Time;durP1;ratioP1;P1;durP2;ratioP2;P2;SDS_P1;SDS_P2;PMS_P1;PMS_P2;Temp;Humidity;BMP_temperature;BMP_pressure;BME280_temperature;BME280_humidity;BME280_pressure;Samples;Min_cycle;Max_cycle;Signal;HPM_P1;HPM_P2
2023/01/19 00:02:23;;;;;;;;;33.67;27.33;;;;;2.33;86.08;100167.78;5139224;27;45419;-70
2023/01/19 00:04:49;;;;;;;;;35.00;29.33;;;;;2.24;86.52;100164.28;5138329;27;45491;-70
2023/01/19 00:07:15;;;;;;;;;36.33;26.67;;;;;2.27;86.03;100163.44;5134954;27;45494;-69
2023/01/19 00:09:40;;;;;;;;;29.00;28.67;;;;;2.21;86.26;100160.84;5117960;27;45366;-70
2023/01/19 00:12:05;;;;;;;;;28.00;24.67;;;;;2.21;87.18;100156.50;5117296;27;45509;-70
2023/01/19 00:14:31;;;;;;;;;27.67;25.00;;;;;2.19;87.58;100163.44;5117897;27;46316;-70
2023/01/19 00:16:57;;;;;;;;;24.67;23.67;;;;;2.25;86.81;100171.22;5117675;27;45321;-69
2023/01/19 00:19:22;;;;;;;;;28.00;21.67;;;;;2.25;86.72;100176.41;5118527;27;45328;-69
2023/01/19 00:21:47;;;;;;;;;28.00;23.67;;;;;2.26;86.87;100177.28;5121749;27;45237;-70
2023/01/19 00:24:13;;;;;;;;;23.67;20.33;;;;;2.22;86.51;100178.13;5121405;27;46393;-69
2023/01/19 00:26:41;;;;;;;;;29.00;23.33;;;;;2.26;87.11;100188.50;5121370;27;45455;-69
2023/01/19 00:29:10;;;;;;;;;31.33;27.00;;;;;2.22;86.51;100181.59;5123954;27;45378;-70
2023/01/19 00:31:36;;;;;;;;;25.00;21.67;;;;;2.25;86.25;100189.41;5142731;27;45218;-69
2023/01/19 00:34:02;;;;;;;;;26.00;20.00;;;;;2.20;86.74;100185.06;5141751;27;45967;-70
2023/01/19 00:36:28;;;;;;;;;29.00;21.00;;;;;2.21;86.64;100194.59;5140678;27;45471;-69
2023/01/19 00:38:53;;;;;;;;;33.33;23.00;;;;;2.23;86.49;100193.72;5141586;27;45500;-70
2023/01/19 00:42:38;;;;;;;;;21.33;21.00;;;;;2.22;86.08;100194.59;5137899;27;45366;-69
2023/01/19 00:44:04;;;;;;;;;23.33;19.33;;;;;2.23;86.36;100208.44;5122164;27;45636;-69
2023/01/19 00:46:29;;;;;;;;;19.67;19.00;;;;;2.19;86.10;100199.78;5128963;27;45523;-69
2023/01/19 00:48:55;;;;;;;;;20.67;17.00;;;;;2.22;86.37;100202.38;5142109;27;45350;-69
2023/01/19 00:51:20;;;;;;;;;33.33;21.00;;;;;2.21;86.85;100203.25;5142007;27;45393;-69
2023/01/19 00:53:45;;;;;;;;;22.00;18.33;;;;;2.06;86.19;100183.31;5141656;27;46589;-69
2023/01/19 00:56:10;;;;;;;;;19.33;15.33;;;;;2.15;85.93;100198.03;5141791;27;45451;-69
2023/01/19 00:58:36;;;;;;;;;18.67;17.00;;;;;2.17;86.08;100192.84;5135045;27;45305;-70
2023/01/19 01:01:03;;;;;;;;;19.67;18.00;;;;;2.19;86.07;100206.69;5121193;27;45588;-70
2023/01/19 01:03:28;;;;;;;;;19.67;18.00;;;;;2.19;86.47;100202.38;5127575;27;47409;-70
2023/01/19 01:05:54;;;;;;;;;20.67;19.33;;;;;2.18;86.81;100203.25;5141055;27;45385;-70
2023/01/19 01:08:19;;;;;;;;;18.67;18.00;;;;;2.19;87.31;100212.78;5137107;27;45502;-70
2023/01/19 01:10:44;;;;;;;;;23.33;16.00;;;;;2.19;86.86;100207.56;5142051;27;45277;-69
2023/01/19 01:13:10;;;;;;;;;17.67;17.67;;;;;2.16;86.57;100211.88;5141484;27;46549;-69
2023/01/19 01:15:35;;;;;;;;;20.00;14.00;;;;;2.17;86.09;100213.63;5134835;27;45323;-69
2023/01/19 01:18:00;;;;;;;;;19.00;14.00;;;;;2.14;86.73;100211.03;5120541;27;45315;-70
2023/01/19 01:20:29;;;;;;;;;23.33;18.33;;;;;2.16;86.88;100209.28;5121128;27;45471;-70
2023/01/19 01:22:56;;;;;;;;;16.33;15.00;;;;;2.15;86.82;100204.94;5120390;27;46164;-69
2023/01/19 01:25:23;;;;;;;;;17.00;14.33;;;;;2.14;87.50;100217.06;5131519;27;45489;-69
2023/01/19 01:27:49;;;;;;;;;18.00;16.33;;;;;2.12;87.49;100211.03;5141514;27;45504;-70
2023/01/19 01:30:15;;;;;;;;;19.00;16.00;;;;;2.15;87.39;100216.22;5140710;27;45484;-69
2023/01/19 01:32:41;;;;;;;;;20.67;18.67;;;;;2.14;87.12;100216.22;5133435;27;46907;-69
2023/01/19 01:35:07;;;;;;;;;23.33;17.33;;;;;2.12;87.11;100213.63;5120290;27;46384;-70
2023/01/19 01:37:34;;;;;;;;;27.00;17.67;;;;;2.15;87.53;100234.41;5120281;27;45425;-69
2023/01/19 01:39:59;;;;;;;;;21.00;19.00;;;;;2.13;87.98;100220.53;5120575;27;45452;-69
2023/01/19 01:42:27;;;;;;;;;21.00;15.00;;;;;2.12;87.25;100224.00;5118839;27;46182;-69
2023/01/19 01:44:58;;;;;;;;;15.67;15.67;;;;;2.16;87.36;100222.25;5120218;27;45294;-69
2023/01/19 01:47:33;;;;;;;;;23.00;20.33;;;;;2.16;87.27;100217.94;5120338;27;45343;-69
2023/01/19 01:50:38;;;;;;;;;21.33;16.67;;;;;2.16;87.19;100222.25;5120168;27;45464;-69
2023/01/19 01:53:12;;;;;;;;;20.00;12.67;;;;;2.14;86.98;100222.25;5119857;27;46448;-69
2023/01/19 01:55:47;;;;;;;;;22.00;18.67;;;;;2.07;88.12;100216.16;5120126;27;45493;-69
2023/01/19 01:58:14;;;;;;;;;29.00;19.00;;;;;2.07;88.02;100216.16;5125082;27;45417;-69
2023/01/19 02:03:25;;;;;;;;;18.00;15.67;;;;;2.10;88.33;100228.31;5140565;27;45369;-69
2023/01/19 02:05:56;;;;;;;;;22.33;13.33;;;;;2.16;88.13;100237.84;5140021;27;45387;-69
2023/01/19 02:14:02;;;;;;;;;15.67;14.67;;;;;2.12;87.21;100226.59;5110321;27;45413;-69
2023/01/19 02:16:28;;;;;;;;;15.67;15.67;;;;;2.12;87.77;100226.59;5132351;27;45419;-69
2023/01/19 02:18:54;;;;;;;;;19.67;14.33;;;;;2.11;87.79;100227.44;5119560;27;45382;-69
2023/01/19 02:21:41;;;;;;;;;20.00;18.00;;;;;2.07;88.95;100226.56;5119798;27;45413;-70
2023/01/19 02:24:07;;;;;;;;;16.33;14.00;;;;;2.05;87.80;100217.06;5119236;27;46649;-69
2023/01/19 02:26:40;;;;;;;;;20.67;14.67;;;;;2.17;89.05;100242.19;5119035;27;45419;-70
2023/01/19 02:29:08;;;;;;;;;18.67;15.00;;;;;2.09;87.97;100227.44;5119456;27;45369;-70
2023/01/19 02:31:36;;;;;;;;;18.33;16.00;;;;;2.18;87.89;100243.91;5121721;27;45315;-70
2023/01/19 02:34:03;;;;;;;;;17.33;15.33;;;;;2.15;88.44;100257.78;5140129;27;47318;-70
2023/01/19 02:36:57;;;;;;;;;23.33;14.33;;;;;2.14;88.28;100250.84;5140054;27;45453;-70
2023/01/19 02:39:44;;;;;;;;;21.33;16.67;;;;;2.15;88.75;100254.28;5128044;27;45448;-69
2023/01/19 02:42:17;;;;;;;;;16.33;12.67;;;;;2.13;88.84;100253.44;5118732;27;45537;-70
2023/01/19 02:44:46;;;;;;;;;19.67;15.00;;;;;2.12;88.92;100252.56;5119215;27;46312;-70
2023/01/19 02:47:11;;;;;;;;;23.33;17.33;;;;;2.11;88.76;100253.41;5119271;27;45450;-70
2023/01/19 02:49:37;;;;;;;;;18.67;16.33;;;;;2.04;88.51;100236.94;5119210;27;45378;-70
2023/01/19 02:52:03;;;;;;;;;14.33;11.33;;;;;2.10;88.49;100249.09;5119082;27;45358;-70
2023/01/19 02:55:06;;;;;;;;;16.67;13.33;;;;;2.10;88.77;100256.88;5118253;27;45544;-70
2023/01/19 02:57:38;;;;;;;;;17.67;16.00;;;;;2.12;89.00;100257.75;5119022;27;45753;-68
2023/01/19 03:00:13;;;;;;;;;17.00;14.33;;;;;2.12;88.33;100259.47;5119211;27;45415;-69
2023/01/19 03:03:10;;;;;;;;;20.00;13.00;;;;;2.11;88.14;100255.13;5119256;27;45379;-69
2023/01/19 03:05:55;;;;;;;;;16.33;13.67;;;;;2.06;89.12;100247.31;5119033;27;47302;-70
2023/01/19 03:08:40;;;;;;;;;7.00;6.33;;;;;2.11;89.39;100257.72;5118577;27;45539;-69
2023/01/19 03:11:09;;;;;;;;;16.33;11.67;;;;;2.01;89.21;100246.47;5124464;27;45505;-69
2023/01/19 03:14:00;;;;;;;;;18.67;18.00;;;;;2.13;89.00;100258.63;5139770;27;45423;-69
2023/01/19 03:16:53;;;;;;;;;16.00;14.00;;;;;2.13;89.44;100258.63;5110315;27;46225;-69
2023/01/19 03:19:21;;;;;;;;;16.00;11.33;;;;;2.12;89.33;100267.25;5116037;27;45373;-69
2023/01/19 03:21:53;;;;;;;;;15.33;11.67;;;;;2.13;90.06;100266.41;5119061;27;45454;-70
2023/01/19 03:24:21;;;;;;;;;18.33;10.67;;;;;2.03;89.28;100248.22;5118923;27;45382;-69
2023/01/19 03:26:54;;;;;;;;;17.67;11.00;;;;;2.15;89.04;100265.56;5120820;27;46344;-69
2023/01/19 03:29:23;;;;;;;;;15.67;11.67;;;;;2.06;89.51;100253.41;5135490;27;45265;-69
2023/01/19 03:31:51;;;;;;;;;15.67;13.00;;;;;2.15;89.14;100265.56;5118513;27;45421;-69
2023/01/19 03:34:21;;;;;;;;;20.00;14.67;;;;;2.12;89.26;100259.47;5118836;27;45446;-69
2023/01/19 03:36:53;;;;;;;;;15.67;14.00;;;;;2.16;89.50;100267.28;5118354;27;46625;-69
2023/01/19 03:39:24;;;;;;;;;16.67;14.00;;;;;2.15;89.18;100272.47;5118188;27;45492;-69
2023/01/19 03:41:53;;;;;;;;;17.67;14.33;;;;;2.13;89.45;100267.25;5118525;27;45333;-69
2023/01/19 03:44:21;;;;;;;;;16.67;14.00;;;;;1.91;89.56;100230.81;5117520;27;45374;-69
2023/01/19 03:46:47;;;;;;;;;16.00;14.00;;;;;2.11;90.05;100261.22;5118373;27;46058;-69
2023/01/19 03:49:13;;;;;;;;;16.00;12.00;;;;;2.05;89.63;100256.00;5118128;27;45411;-69
2023/01/19 03:51:38;;;;;;;;;15.33;14.67;;;;;2.12;89.84;100265.56;5118453;27;45590;-69
2023/01/19 03:54:05;;;;;;;;;19.00;15.00;;;;;2.16;89.84;100277.66;5119288;27;45626;-69
2023/01/19 03:56:31;;;;;;;;;14.00;11.67;;;;;2.12;89.37;100264.66;5118051;27;46732;-69
2023/01/19 03:58:56;;;;;;;;;21.00;12.33;;;;;2.16;89.52;100282.00;5118179;27;45383;-68
2023/01/19 04:01:23;;;;;;;;;17.67;13.33;;;;;2.08;89.22;100266.41;5125655;27;45771;-69
2023/01/19 04:03:50;;;;;;;;;18.00;14.67;;;;;2.16;89.39;100280.25;5139213;27;45341;-68
2023/01/19 04:06:16;;;;;;;;;13.00;12.00;;;;;2.16;89.92;100279.41;5125872;27;46697;-69
2023/01/19 04:08:41;;;;;;;;;17.67;14.67;;;;;2.11;89.45;100266.41;5117492;27;45636;-69
2023/01/19 04:11:07;;;;;;;;;14.67;12.67;;;;;2.11;88.84;100269.00;5118361;27;45280;-69
2023/01/19 04:13:33;;;;;;;;;21.00;14.00;;;;;2.07;89.37;100265.50;5118213;27;45347;-69
2023/01/19 04:16:00;;;;;;;;;14.67;10.33;;;;;2.06;89.98;100263.78;5117815;27;46317;-69
2023/01/19 04:18:27;;;;;;;;;14.67;14.67;;;;;2.14;90.08;100286.34;5116910;27;45763;-69
2023/01/19 04:20:53;;;;;;;;;21.67;16.33;;;;;2.13;90.15;100287.19;5117866;27;45420;-69
2023/01/19 04:23:19;;;;;;;;;17.00;13.33;;;;;2.11;90.12;100288.88;5117781;27;45473;-69
2023/01/19 04:25:44;;;;;;;;;19.67;11.33;;;;;2.09;89.82;100286.28;5117836;27;47036;-70
2023/01/19 04:28:10;;;;;;;;;18.33;15.00;;;;;2.11;89.95;100297.56;5117480;27;45350;-69
2023/01/19 04:30:36;;;;;;;;;14.33;14.33;;;;;2.00;89.99;100276.72;5117957;27;45476;-69
2023/01/19 04:33:01;;;;;;;;;16.67;12.67;;;;;2.03;89.94;100289.75;5134088;27;45408;-69
2023/01/19 04:35:27;;;;;;;;;17.33;11.33;;;;;2.07;89.76;100301.88;5121598;27;45631;-69
2023/01/19 04:37:52;;;;;;;;;14.00;12.33;;;;;2.08;89.66;100298.41;5138303;27;45311;-69
2023/01/19 04:40:18;;;;;;;;;22.33;15.33;;;;;1.81;90.32;100256.75;5125542;27;45572;-70
2023/01/19 04:42:44;;;;;;;;;16.00;14.00;;;;;2.01;89.96;100294.06;5117856;27;45273;-70
2023/01/19 04:45:11;;;;;;;;;14.00;12.67;;;;;2.05;89.84;100300.16;5117691;27;46301;-70
2023/01/19 04:47:36;;;;;;;;;15.00;13.33;;;;;1.99;90.53;100295.78;5117655;27;45448;-69
2023/01/19 04:50:01;;;;;;;;;20.67;15.00;;;;;2.00;90.09;100300.09;5117408;27;45295;-70
2023/01/19 04:52:33;;;;;;;;;19.67;15.00;;;;;2.02;89.67;100303.59;5119758;27;45314;-70
2023/01/19 04:55:00;;;;;;;;;17.00;14.00;;;;;2.01;90.10;100309.63;5138218;27;46261;-70
2023/01/19 04:57:25;;;;;;;;;14.33;11.67;;;;;1.99;90.06;100297.50;5124257;27;45394;-70
2023/01/19 04:59:50;;;;;;;;;17.33;14.67;;;;;2.02;89.80;100303.59;5117627;27;45406;-70
2023/01/19 05:02:16;;;;;;;;;16.33;14.67;;;;;1.91;89.94;100287.94;5117673;27;45598;-69
2023/01/19 05:04:41;;;;;;;;;11.67;7.67;;;;;1.99;90.08;100306.16;5117126;27;45621;-70
2023/01/19 05:07:07;;;;;;;;;15.67;15.33;;;;;1.96;90.20;100298.38;5120673;27;45347;-70
2023/01/19 05:09:32;;;;;;;;;16.67;12.67;;;;;1.98;90.72;100295.78;5119581;27;45403;-70
2023/01/19 05:11:57;;;;;;;;;23.67;16.33;;;;;1.95;89.71;100294.03;5141932;27;45289;-70
2023/01/19 05:14:23;;;;;;;;;21.33;15.00;;;;;1.97;90.45;100302.69;5127901;27;45530;-70
2023/01/19 05:16:48;;;;;;;;;15.33;11.67;;;;;1.93;90.26;100295.72;5120463;27;45381;-70
2023/01/19 05:19:14;;;;;;;;;19.67;15.00;;;;;1.97;89.99;100305.28;5121109;27;45862;-70
2023/01/19 05:21:39;;;;;;;;;13.00;11.00;;;;;1.98;90.62;100306.16;5120997;27;45310;-70
2023/01/19 05:24:05;;;;;;;;;19.00;15.00;;;;;1.93;90.45;100300.91;5120430;27;46122;-70
2023/01/19 05:26:30;;;;;;;;;25.00;16.33;;;;;1.87;90.64;100294.00;5120561;27;45391;-70
2023/01/19 05:28:56;;;;;;;;;16.33;14.00;;;;;1.97;91.13;100304.41;5136452;27;45876;-70
2023/01/19 05:31:22;;;;;;;;;26.67;14.33;;;;;1.98;90.16;100309.63;5128271;27;45487;-70
2023/01/19 05:33:47;;;;;;;;;17.33;15.00;;;;;1.99;90.54;100306.16;5120427;27;47035;-70
2023/01/19 05:36:13;;;;;;;;;21.33;14.33;;;;;1.99;90.82;100310.47;5120470;27;45867;-70
2023/01/19 05:38:38;;;;;;;;;17.00;14.00;;;;;1.97;90.67;100307.03;5120414;27;45398;-69
2023/01/19 05:41:04;;;;;;;;;22.33;12.33;;;;;1.99;90.44;100305.28;5120474;27;45361;-70
2023/01/19 05:43:29;;;;;;;;;14.67;14.67;;;;;1.94;90.04;100307.00;5118723;27;46494;-70
2023/01/19 05:45:54;;;;;;;;;20.33;13.67;;;;;1.98;90.29;100316.56;5119353;27;45454;-70
2023/01/19 05:48:20;;;;;;;;;15.00;15.00;;;;;1.57;90.42;100250.56;5120323;27;45219;-69
2023/01/19 05:50:47;;;;;;;;;14.00;14.00;;;;;1.91;90.75;100313.03;5120554;27;45408;-69
2023/01/19 05:53:12;;;;;;;;;13.33;12.00;;;;;1.89;90.84;100313.03;5120080;27;46579;-68
2023/01/19 05:55:38;;;;;;;;;13.33;12.00;;;;;1.85;90.87;100311.28;5120098;27;45499;-69
2023/01/19 05:58:03;;;;;;;;;22.67;18.67;;;;;1.89;90.73;100317.38;5120196;27;45243;-69
2023/01/19 06:00:28;;;;;;;;;20.67;18.33;;;;;1.86;91.41;100317.31;5119541;27;45668;-70
2023/01/19 06:02:54;;;;;;;;;14.67;13.33;;;;;1.89;90.53;100323.41;5119752;27;46470;-70
2023/01/19 06:05:19;;;;;;;;;14.67;12.33;;;;;1.89;90.41;100333.81;5119720;27;45328;-69
2023/01/19 06:07:44;;;;;;;;;14.67;12.33;;;;;1.84;90.56;100319.06;5120112;27;45450;-69
2023/01/19 06:10:10;;;;;;;;;16.67;11.67;;;;;1.80;90.18;100315.59;5119900;27;45440;-70
2023/01/19 06:12:38;;;;;;;;;17.00;14.00;;;;;1.85;90.46;100326.00;5119809;27;46490;-70
2023/01/19 06:15:04;;;;;;;;;13.67;12.33;;;;;1.59;90.57;100287.75;5119800;27;45319;-70
2023/01/19 06:17:31;;;;;;;;;28.00;22.00;;;;;1.79;91.17;100326.81;5125132;27;45519;-70
2023/01/19 06:19:56;;;;;;;;;16.67;15.00;;;;;1.79;90.80;100324.22;5140997;27;45291;-69
2023/01/19 06:22:22;;;;;;;;;18.33;13.67;;;;;1.79;90.66;100328.56;5126784;27;47103;-69
2023/01/19 06:24:47;;;;;;;;;20.33;16.00;;;;;1.83;90.52;100330.28;5119640;27;45400;-70
2023/01/19 06:27:12;;;;;;;;;22.33;16.67;;;;;1.68;90.54;100312.91;5119784;27;45465;-69
2023/01/19 06:29:38;;;;;;;;;35.00;28.33;;;;;1.77;91.11;100330.25;5119630;27;45441;-69
2023/01/19 06:32:03;;;;;;;;;22.33;18.67;;;;;1.80;91.47;100333.75;5119568;27;45392;-70
2023/01/19 06:34:29;;;;;;;;;19.00;19.00;;;;;1.79;90.88;100337.19;5119436;27;45356;-72
2023/01/19 06:36:55;;;;;;;;;25.00;18.00;;;;;1.80;91.24;100340.66;5138500;27;45692;-71
2023/01/19 06:39:20;;;;;;;;;18.00;13.33;;;;;1.81;91.08;100339.81;5127151;27;45353;-71
2023/01/19 06:41:46;;;;;;;;;20.67;17.33;;;;;1.81;91.82;100338.06;5118998;27;45773;-71
2023/01/19 06:44:11;;;;;;;;;22.33;19.33;;;;;1.85;91.46;100346.75;5119552;27;45410;-71
2023/01/19 06:46:36;;;;;;;;;21.67;17.67;;;;;1.84;91.20;100345.00;5119218;27;45329;-71
2023/01/19 06:49:02;;;;;;;;;47.67;41.00;;;;;1.88;92.08;100351.97;5119614;27;45789;-72
2023/01/19 06:51:27;;;;;;;;;19.00;14.33;;;;;1.89;91.91;100351.97;5118449;27;46486;-70
2023/01/19 06:53:53;;;;;;;;;7.67;6.67;;;;;1.92;91.29;100356.31;5119162;27;45409;-71
2023/01/19 06:56:18;;;;;;;;;26.33;20.00;;;;;1.99;91.51;100370.19;5118816;27;45845;-71
2023/01/19 06:58:46;;;;;;;;;20.67;16.33;;;;;1.99;91.75;100368.50;5119353;27;45331;-70
2023/01/19 07:01:11;;;;;;;;;25.67;18.33;;;;;1.97;91.35;100367.59;5119038;27;46443;-72
2023/01/19 07:03:37;;;;;;;;;28.00;22.00;;;;;1.97;91.79;100372.78;5118755;27;45377;-72
2023/01/19 07:06:05;;;;;;;;;31.67;25.67;;;;;1.97;91.99;100380.56;5117749;27;45264;-72
2023/01/19 07:08:31;;;;;;;;;35.00;26.33;;;;;1.97;91.97;100383.16;5124084;27;45491;-72
2023/01/19 07:11:03;;;;;;;;;30.00;26.00;;;;;1.92;91.53;100379.69;5139456;27;46312;-71
2023/01/19 07:13:29;;;;;;;;;28.00;24.67;;;;;1.87;91.71;100369.28;5127136;27;45407;-72
2023/01/19 07:15:55;;;;;;;;;27.67;21.33;;;;;1.83;90.76;100371.81;5130950;27;45377;-72
2023/01/19 07:18:20;;;;;;;;;29.67;20.33;;;;;1.85;91.05;100389.16;5119008;27;45352;-72
2023/01/19 07:20:48;;;;;;;;;24.33;20.33;;;;;1.86;91.08;100396.09;5118811;27;47313;-72
2023/01/19 07:23:14;;;;;;;;;34.33;24.00;;;;;1.81;90.51;100389.97;5117478;27;45514;-71
2023/01/19 07:25:39;;;;;;;;;30.67;25.33;;;;;1.55;90.41;100350.88;5117435;27;45568;-72
2023/01/19 07:28:04;;;;;;;;;33.67;30.00;;;;;1.74;89.73;100394.28;5116271;27;45448;-72
2023/01/19 07:30:30;;;;;;;;;33.00;27.00;;;;;1.67;89.92;100394.19;5118473;27;45571;-72
2023/01/19 07:32:56;;;;;;;;;28.33;23.33;;;;;1.68;90.92;100406.31;5114799;27;46822;-72
2023/01/19 07:35:25;;;;;;;;;29.67;21.33;;;;;1.66;90.58;100411.50;5112989;27;45886;-72
2023/01/19 07:37:50;;;;;;;;;28.00;23.00;;;;;1.62;90.47;100414.94;5118710;27;45812;-72
2023/01/19 07:40:16;;;;;;;;;23.00;19.00;;;;;1.61;90.31;100412.31;5118320;27;45410;-71
2023/01/19 07:42:49;;;;;;;;;28.00;23.67;;;;;1.60;89.86;100407.97;5118235;27;45398;-72
2023/01/19 07:45:16;;;;;;;;;24.67;22.67;;;;;1.54;89.80;100408.78;5118545;27;45242;-72
2023/01/19 07:47:43;;;;;;;;;29.33;24.67;;;;;1.50;89.86;100407.06;5118746;27;45585;-72
2023/01/19 07:50:10;;;;;;;;;26.33;23.33;;;;;1.50;89.97;100417.44;5118131;27;46607;-72
2023/01/19 07:52:35;;;;;;;;;26.67;21.33;;;;;1.50;89.88;100423.47;5118234;27;45387;-72
2023/01/19 07:55:01;;;;;;;;;26.33;18.67;;;;;1.22;89.72;100373.09;5118362;27;45287;-72
2023/01/19 07:57:27;;;;;;;;;31.33;21.67;;;;;1.37;89.71;100404.34;5118424;27;45473;-72
2023/01/19 07:59:52;;;;;;;;;31.00;25.67;;;;;1.47;89.68;100420.84;5118108;27;47433;-72
2023/01/19 08:02:17;;;;;;;;;25.33;22.67;;;;;1.24;89.24;100386.94;5118094;27;45319;-72
2023/01/19 08:04:43;;;;;;;;;26.67;21.33;;;;;1.41;89.03;100410.44;5118321;27;45248;-72
2023/01/19 08:07:08;;;;;;;;;18.33;17.67;;;;;1.42;89.31;100422.53;5117020;27;45312;-72
2023/01/19 08:09:34;;;;;;;;;30.67;25.67;;;;;1.42;89.29;100425.13;5117762;27;46568;-72
2023/01/19 08:11:59;;;;;;;;;27.33;22.33;;;;;1.45;88.89;100437.25;5117921;27;45433;-72
2023/01/19 08:14:24;;;;;;;;;23.67;22.00;;;;;1.44;89.20;100431.22;5118148;27;45452;-72
2023/01/19 08:16:50;;;;;;;;;35.50;25.50;;;;;1.44;89.49;100427.72;5118316;27;45409;-72
2023/01/19 08:19:15;;;;;;;;;93.25;76.00;;;;;1.48;89.96;100425.19;5117652;27;45354;-72
2023/01/19 08:21:41;;;;;;;;;29.00;26.00;;;;;1.55;89.46;100429.59;5117815;27;45236;-72
2023/01/19 08:24:16;;;;;;;;;44.33;33.67;;;;;1.56;89.24;100420.94;5118009;27;45468;-72
2023/01/19 08:26:42;;;;;;;;;27.67;25.33;;;;;1.61;88.93;100428.75;5117225;27;45488;-72
2023/01/19 08:29:07;;;;;;;;;25.67;21.00;;;;;1.72;88.56;100431.44;5117526;27;47146;-72
2023/01/19 08:31:33;;;;;;;;;36.67;30.00;;;;;1.85;89.82;100422.03;5117907;27;45456;-72
2023/01/19 08:33:58;;;;;;;;;31.67;29.67;;;;;2.47;89.23;100425.91;5116521;27;45479;-72
2023/01/19 08:36:24;;;;;;;;;28.33;22.67;;;;;2.92;85.87;100433.88;5118169;27;45491;-72
2023/01/19 08:38:49;;;;;;;;;24.33;23.67;;;;;2.85;85.09;100430.38;5117372;27;46331;-72
2023/01/19 08:41:15;;;;;;;;;32.67;23.33;;;;;2.76;85.00;100432.97;5119156;27;45473;-72
2023/01/19 08:43:41;;;;;;;;;33.33;26.67;;;;;2.62;85.12;100435.50;5121563;27;45236;-72
2023/01/19 08:46:06;;;;;;;;;29.33;25.67;;;;;2.52;85.10;100437.16;5121526;27;45253;-72
2023/01/19 08:48:32;;;;;;;;;32.33;27.33;;;;;2.50;85.55;100441.50;5121000;27;45385;-72
2023/01/19 08:50:58;;;;;;;;;32.00;26.67;;;;;2.48;86.07;100443.19;5121101;27;45354;-72
2023/01/19 08:53:24;;;;;;;;;34.00;25.00;;;;;2.42;86.14;100432.78;5121202;27;45446;-72
2023/01/19 08:55:53;;;;;;;;;26.00;19.67;;;;;2.46;86.28;100434.53;5121235;27;45426;-72
2023/01/19 08:58:18;;;;;;;;;26.67;24.00;;;;;2.61;86.15;100457.13;5120541;27;45467;-72
2023/01/19 09:00:44;;;;;;;;;31.67;25.00;;;;;2.61;85.75;100439.84;5121026;27;45823;-72
2023/01/19 09:03:12;;;;;;;;;39.00;28.67;;;;;2.69;85.66;100436.41;5120919;27;45396;-72
2023/01/19 09:05:38;;;;;;;;;29.33;25.00;;;;;2.78;84.73;100450.28;5121133;27;45236;-72
2023/01/19 09:08:09;;;;;;;;;33.33;29.00;;;;;2.81;85.37;100456.38;5120561;27;46595;-72
2023/01/19 09:10:36;;;;;;;;;31.00;26.33;;;;;2.99;86.01;100443.41;5120680;27;45400;-72
2023/01/19 09:13:08;;;;;;;;;32.33;26.33;;;;;3.54;84.56;100454.84;5120646;27;45427;-72
2023/01/19 09:15:36;;;;;;;;;37.33;28.00;;;;;3.74;82.96;100450.50;5120955;27;45584;-72
2023/01/19 09:18:03;;;;;;;;;33.00;25.33;;;;;3.82;82.62;100450.53;5120484;27;46536;-71
2023/01/19 09:20:30;;;;;;;;;33.33;26.33;;;;;3.98;82.23;100447.03;5120452;27;45343;-72
2023/01/19 09:22:57;;;;;;;;;28.00;22.33;;;;;4.00;81.92;100452.25;5120882;27;45405;-72
2023/01/19 09:25:22;;;;;;;;;34.00;30.33;;;;;3.97;81.50;100432.28;5120810;27;45414;-69
2023/01/19 09:27:48;;;;;;;;;31.67;26.67;;;;;4.15;80.20;100441.81;5120442;27;45476;-70
2023/01/19 09:30:13;;;;;;;;;19.33;18.00;;;;;4.40;81.04;100461.75;5120480;27;45390;-70
2023/01/19 09:32:38;;;;;;;;;31.33;29.00;;;;;4.92;79.57;100464.19;5119945;27;45492;-70
2023/01/19 09:35:04;;;;;;;;;32.67;23.00;;;;;5.09;78.08;100458.03;5120663;27;45481;-70
2023/01/19 09:37:29;;;;;;;;;34.33;27.00;;;;;4.90;77.99;100447.69;5120334;27;45575;-70
2023/01/19 09:39:55;;;;;;;;;36.33;26.67;;;;;4.82;78.31;100462.50;5120298;27;45408;-70
2023/01/19 09:42:29;;;;;;;;;29.00;24.00;;;;;4.70;77.89;100447.75;5120277;27;45506;-70
2023/01/19 09:44:55;;;;;;;;;25.67;20.00;;;;;4.83;78.23;100459.88;5120458;27;45425;-70
2023/01/19 09:47:24;;;;;;;;;32.00;25.67;;;;;4.84;77.59;100463.38;5120136;27;46769;-70
2023/01/19 09:49:58;;;;;;;;;20.33;18.33;;;;;4.89;77.46;100464.19;5120267;27;45290;-71
2023/01/19 09:52:24;;;;;;;;;27.33;22.67;;;;;5.06;76.83;100474.56;5119366;27;45420;-71
2023/01/19 09:54:55;;;;;;;;;31.00;28.00;;;;;5.17;76.98;100467.56;5120358;27;45461;-71
2023/01/19 09:57:22;;;;;;;;;29.67;26.67;;;;;5.17;77.11;100451.91;5119691;27;46412;-71
2023/01/19 09:59:50;;;;;;;;;27.00;23.00;;;;;5.43;75.29;100458.69;5119738;27;45566;-71
2023/01/19 10:02:26;;;;;;;;;27.00;25.00;;;;;5.83;75.13;100479.31;5120133;27;45414;-70
2023/01/19 10:05:22;;;;;;;;;27.00;24.33;;;;;6.02;73.82;100468.75;5120154;27;45416;-71
2023/01/19 10:08:05;;;;;;;;;39.67;32.67;;;;;6.05;72.10;100481.81;5035850;28;46238;-71
2023/01/19 10:10:31;;;;;;;;;31.33;26.00;;;;;5.82;73.91;100461.91;5036129;28;45386;-71
2023/01/19 10:13:11;;;;;;;;;23.33;20.33;;;;;5.64;73.32;100480.34;5036035;28;45424;-71
2023/01/19 10:15:44;;;;;;;;;26.00;23.33;;;;;5.27;74.45;100467.50;5036124;28;45464;-71
2023/01/19 10:18:33;;;;;;;;;31.00;24.33;;;;;5.15;74.61;100482.34;5035838;28;46404;-71
2023/01/19 10:21:04;;;;;;;;;29.33;21.67;;;;;5.00;74.94;100491.13;5035913;28;45509;-71
2023/01/19 10:23:47;;;;;;;;;27.67;24.00;;;;;4.87;75.11;100487.69;5036121;28;45437;-71
2023/01/19 10:26:15;;;;;;;;;29.00;20.33;;;;;4.84;75.71;100495.53;5036167;28;45898;-71
2023/01/19 10:28:44;;;;;;;;;31.00;28.33;;;;;4.55;76.29;100455.66;5035421;28;45471;-71
2023/01/19 10:31:11;;;;;;;;;26.00;25.00;;;;;4.61;76.62;100482.56;5035936;28;45382;-71
2023/01/19 10:33:37;;;;;;;;;38.67;23.33;;;;;4.65;76.82;100501.69;5036051;28;45608;-71
2023/01/19 10:36:05;;;;;;;;;28.00;24.00;;;;;4.59;76.95;100496.47;5036177;28;45441;-71
2023/01/19 10:38:32;;;;;;;;;30.00;25.67;;;;;4.56;77.75;100499.06;5035229;28;47584;-70
2023/01/19 10:41:05;;;;;;;;;33.33;24.00;;;;;4.52;77.43;100486.06;5035596;28;45740;-71
2023/01/19 10:43:40;;;;;;;;;35.67;28.00;;;;;4.57;77.69;100500.81;5035580;28;45286;-70
2023/01/19 10:46:16;;;;;;;;;30.00;27.00;;;;;4.39;77.53;100460.88;5119619;27;45336;-71
2023/01/19 10:48:42;;;;;;;;;28.67;22.00;;;;;4.68;77.83;100496.47;5118976;27;45923;-71
2023/01/19 10:51:09;;;;;;;;;28.67;20.33;;;;;4.75;77.60;100500.78;5118948;27;45503;-71
2023/01/19 10:53:36;;;;;;;;;23.00;23.00;;;;;4.78;77.65;100503.38;5119239;27;45215;-71
2023/01/19 10:56:12;;;;;;;;;23.67;18.33;;;;;4.80;76.98;100496.41;5119143;27;45424;-71
2023/01/19 10:58:39;;;;;;;;;25.33;22.00;;;;;4.73;77.61;100491.22;5118544;27;45754;-71
2023/01/19 11:01:18;;;;;;;;;30.00;24.67;;;;;4.69;77.41;100493.84;5119019;27;45335;-71
2023/01/19 11:03:44;;;;;;;;;33.00;23.00;;;;;4.63;77.43;100488.66;5118305;27;45332;-71
2023/01/19 11:06:12;;;;;;;;;27.33;21.33;;;;;4.64;77.47;100497.34;5119008;27;45483;-70
2023/01/19 11:08:38;;;;;;;;;25.33;25.33;;;;;4.52;77.39;100475.63;5118797;27;46458;-71
2023/01/19 11:11:06;;;;;;;;;56.00;46.67;;;;;4.60;77.35;100495.59;5118437;27;45363;-71
2023/01/19 11:13:32;;;;;;;;;26.33;22.67;;;;;4.46;77.41;100472.16;5118648;27;45369;-71
2023/01/19 11:16:19;;;;;;;;;30.33;23.33;;;;;4.48;77.46;100483.47;5119103;27;45882;-70
2023/01/19 11:18:46;;;;;;;;;22.67;18.67;;;;;4.48;77.51;100483.47;5118663;27;45452;-70
2023/01/19 11:21:16;;;;;;;;;27.33;27.00;;;;;4.33;77.46;100466.97;5118514;27;45426;-70
2023/01/19 11:23:50;;;;;;;;;28.33;23.33;;;;;4.41;77.71;100489.56;5118922;27;45209;-70
2023/01/19 11:26:24;;;;;;;;;32.33;29.00;;;;;4.26;78.44;100464.41;5118808;27;45422;-70
2023/01/19 11:28:53;;;;;;;;;23.00;18.33;;;;;4.38;78.11;100487.81;5118229;27;46523;-70
2023/01/19 11:31:39;;;;;;;;;25.00;22.67;;;;;4.45;79.01;100489.53;5117638;27;45280;-70